Terminal Aerodrome Forecast
Issued by NWS Jackson, MS

Home | Current Version | Previous Version | Text Only | Print | Product List | Glossary On
Versions: 1 2 3 4 5 6 7 8 9 10 11 12 13
000
FTUS44 KJAN 160500
TAFGLH
TAF
KGLH 160520Z 1606/1706 36003KT P6SM SCT100 OVC250
     FM161500 36007KT P6SM VCSH SCT060 OVC120
     FM170000 36004KT P6SM SCT250=

USA.gov is the U.S. government's official web portal to all federal, state and local government web resources and services.